Cut Knife, Canada
Current Conditions -  °F | °C
As of 7:40 AM on Friday 19 Dec 2014 (Local Time) from CYQW Reporting Station
Haze Haze  
Wind Chill: 14°   Ceiling: 300
Heat Index: 14°   Visibility: 1.5mi
Dew Point: 12°   Wind: 3mph
Humidity: 93%   Direction: 190°S
Pressure: 29.92"   Gusts: NA
Location:  52.74°N, 109.02°W
Report Text: CYQW 191340Z AUTO 19003KT 1 1/2SM BR OVC003 M10/M11 A2992 RMK VIS VRB 3/4-3 SLP172
Loading
Personal Weather Stations






























Interactive Weather Map New forecast layout! Learn more

10-Day Weather Forecast

Advertisements
Track Severe Weather on mobile